Heathridge, Texas
Current Conditions -  °F | °C
As of 2:15 AM on Sunday 26 Oct 2014 (Local Time) from KHQZ Reporting Station
Clear Clear  
Wind Chill: 63°   Ceiling: Unl
Heat Index: 63°   Visibility: 10mi
Dew Point: 60°   Wind: 3mph
Humidity: 90%   Direction: 170°S
Pressure: 30.04"   Gusts: NA
Location:  32.7342°N, 96.451°W
Report Text: KHQZ 260715Z AUTO 17003KT 10SM CLR 17/16 A3004 RMK AO1 T01730157
Loading
Personal Weather Stations






























Interactive Weather Map
Tropical Storm Tracking
New forecast layout! Learn more

10-Day Weather Forecast

Advertisements
Track Severe Weather on mobile